KHUA

Details ICAO KHUA (HUA)
Name REDSTONE AAF
Region United States
Timezone America/Chicago (UTC-5.0)
Plans Departing 7
Arriving 1
Stats Elevation 685 ft / 209 m (AMSL)
Location 34.678655° -86.684782°
Runways 1
Magnetic Variation 3.693° W
Sunrise 2018-05-23 10:40:07 UTC / 2018-05-23 05:40:07 Local
Sunset 2018-05-24 00:49:46 UTC / 2018-05-23 19:49:46 Local
Advertisement - Login to hide

Runways

ID Width Length Bearing (true) Bearing (mag) Surface Threshold Offset Overrun Length
17 150 ft / 46 m 7,319 ft / 2,231 m 169.53° 173.22° Asphalt 0 ft / 0 m 0 ft / 0 m
35 150 ft / 46 m 7,319 ft / 2,231 m 349.54° 353.23° Asphalt 0 ft / 0 m 0 ft / 0 m

Map

Weather


0- 5 10 15 20 25 30 35+ Temperature / ° C

Clouds and Precipitation
Forecast for 2018-05-23 18:00 UTC. Updated 6 hours ago

Ground ~20,000 ft ~40,000 ft Winds

METAR

KHUA 232258Z AUTO 05005KT 10SM CLR 29/19 A3001 RMK AO2 SLP157 T02920186

TAF

Not found

Frequencies

Unicom 126.95 MHz CTAF
Approach 124.80 MHz GCA
Approach 125.60 MHz HUNTSVILLE APP/DEP
Tower 126.95 MHz TWR
Approach 118.05 MHz HUNTSVILLE APP/DEP
Warning: Do not use this data for real-world aviation or navigation. No guarantee of current accuracy is given.